createdAt,value
2019-03-08T00:00:01.985Z,12.33
2019-03-08T00:00:45.278Z,11.97
2019-03-08T00:01:31.057Z,12.20
2019-03-08T00:02:10.950Z,11.65
2019-03-08T00:02:49.550Z,12.70
2019-03-08T00:03:28.303Z,13.97
2019-03-08T00:04:06.963Z,12.37
2019-03-08T00:04:45.651Z,12.80
2019-03-08T00:05:24.249Z,12.77
2019-03-08T00:06:02.915Z,12.47
2019-03-08T00:06:41.619Z,14.13
2019-03-08T00:07:20.268Z,14.70
2019-03-08T00:07:58.906Z,13.97
2019-03-08T00:08:37.540Z,12.00
2019-03-08T00:09:16.232Z,13.33
2019-03-08T00:09:54.947Z,13.40
2019-03-08T00:10:33.594Z,13.07
2019-03-08T00:11:12.261Z,15.53
2019-03-08T00:11:50.903Z,13.83
2019-03-08T00:12:29.580Z,16.23
2019-03-08T00:13:08.169Z,13.97
2019-03-08T00:13:47.052Z,14.47
2019-03-08T00:14:25.667Z,12.70
2019-03-08T00:15:04.368Z,14.17
2019-03-08T00:15:42.957Z,13.37
2019-03-08T00:16:21.538Z,14.27
2019-03-08T00:17:00.112Z,13.30
2019-03-08T00:17:38.806Z,14.83
2019-03-08T00:18:17.602Z,15.63
2019-03-08T00:18:56.223Z,14.17
2019-03-08T00:19:34.835Z,13.50
2019-03-08T00:20:13.540Z,13.90
2019-03-08T00:20:52.248Z,14.57
2019-03-08T00:21:30.991Z,15.23
2019-03-08T00:22:09.864Z,14.53
2019-03-08T00:22:48.437Z,12.77
2019-03-08T00:23:27.068Z,15.37
2019-03-08T00:24:05.994Z,14.83
2019-03-08T00:24:44.597Z,15.47
2019-03-08T00:25:23.240Z,14.97
2019-03-08T00:26:01.906Z,16.23
2019-03-08T00:26:40.513Z,14.07
2019-03-08T00:27:19.131Z,14.97
2019-03-08T00:27:57.806Z,16.67
2019-03-08T00:28:37.103Z,14.90
2019-03-08T00:29:15.704Z,13.97
2019-03-08T00:29:54.448Z,15.60
2019-03-08T00:30:33.106Z,15.30
2019-03-08T00:31:11.702Z,14.53
2019-03-08T00:31:50.403Z,14.15
2019-03-08T00:32:28.995Z,16.77
2019-03-08T00:33:07.723Z,15.80
2019-03-08T00:33:46.340Z,15.40
2019-03-08T00:34:24.957Z,15.60
2019-03-08T00:35:03.626Z,14.83
2019-03-08T00:35:42.220Z,15.57
2019-03-08T00:36:20.905Z,14.80
2019-03-08T00:36:59.586Z,16.73
2019-03-08T00:37:38.164Z,17.17
2019-03-08T00:38:16.885Z,15.00
2019-03-08T00:38:55.682Z,15.70
2019-03-08T00:39:34.289Z,14.70
2019-03-08T00:40:13.126Z,13.83
2019-03-08T00:40:51.769Z,16.07
2019-03-08T00:41:30.377Z,15.37
2019-03-08T00:42:08.978Z,16.17
2019-03-08T00:42:47.649Z,14.20
2019-03-08T00:43:26.305Z,15.00
2019-03-08T00:44:05.083Z,20.95
2019-03-08T00:44:43.691Z,20.13
2019-03-08T00:45:22.328Z,14.70
2019-03-08T00:46:00.970Z,15.13
2019-03-08T00:46:39.606Z,16.90
2019-03-08T00:47:18.252Z,15.88
2019-03-08T00:47:56.821Z,16.53
2019-03-08T00:48:35.506Z,14.80
2019-03-08T00:49:14.351Z,17.00
2019-03-08T00:49:53.056Z,14.37
2019-03-08T00:50:31.731Z,16.23
2019-03-08T00:51:10.393Z,14.80
2019-03-08T00:51:49.049Z,19.80
2019-03-08T00:52:27.704Z,15.93
2019-03-08T00:53:06.360Z,16.90
2019-03-08T00:53:45.163Z,15.63
2019-03-08T00:54:23.695Z,16.03
2019-03-08T00:55:02.392Z,15.37
2019-03-08T00:55:40.962Z,17.10
2019-03-08T00:56:19.597Z,15.37
2019-03-08T00:56:58.271Z,22.10
2019-03-08T00:57:36.953Z,15.93
2019-03-08T00:58:15.552Z,16.80
2019-03-08T00:58:54.249Z,16.43
2019-03-08T00:59:32.850Z,15.33
2019-03-08T01:00:14.133Z,17.40
2019-03-08T01:00:52.758Z,16.17
2019-03-08T01:01:31.458Z,17.70
2019-03-08T01:02:10.074Z,16.87
2019-03-08T01:02:48.776Z,18.03
2019-03-08T01:03:27.342Z,16.13
2019-03-08T01:04:06.093Z,16.30
2019-03-08T01:04:44.681Z,16.10
2019-03-08T01:05:23.344Z,16.67
2019-03-08T01:06:01.946Z,19.73
2019-03-08T01:06:40.567Z,16.67
2019-03-08T01:07:19.207Z,16.10
2019-03-08T01:07:57.853Z,17.67
2019-03-08T01:08:36.722Z,16.40
2019-03-08T01:09:15.360Z,16.17
2019-03-08T01:09:53.966Z,16.00
2019-03-08T01:10:32.584Z,18.47
2019-03-08T01:11:11.227Z,17.93
2019-03-08T01:11:49.898Z,15.93
2019-03-08T01:12:28.618Z,16.53
2019-03-08T01:13:07.219Z,17.53
2019-03-08T01:13:45.888Z,16.60
2019-03-08T01:14:24.588Z,17.23
2019-03-08T01:15:03.154Z,16.53
2019-03-08T01:15:41.752Z,17.10
2019-03-08T01:16:20.337Z,16.77
2019-03-08T01:16:58.942Z,16.40
2019-03-08T01:17:37.631Z,16.37
2019-03-08T01:18:16.211Z,15.83
2019-03-08T01:18:55.048Z,16.87
2019-03-08T01:19:33.681Z,16.73
2019-03-08T01:20:13.347Z,16.43
2019-03-08T01:20:52.026Z,16.87
2019-03-08T01:21:30.682Z,23.17
2019-03-08T01:22:09.246Z,16.37
2019-03-08T01:22:47.837Z,15.33
2019-03-08T01:23:26.443Z,15.70
2019-03-08T01:24:05.039Z,18.53
2019-03-08T01:24:43.696Z,17.50
2019-03-08T01:25:22.322Z,16.60
2019-03-08T01:26:01.033Z,17.70
2019-03-08T01:26:39.649Z,16.43
2019-03-08T01:27:18.314Z,17.50
2019-03-08T01:28:01.664Z,19.80
2019-03-08T01:28:40.961Z,17.10
2019-03-08T01:29:19.625Z,16.17
2019-03-08T01:29:58.255Z,17.33
2019-03-08T01:30:37.001Z,17.37
2019-03-08T01:31:15.662Z,17.07
2019-03-08T01:31:54.385Z,17.20
2019-03-08T01:32:33.054Z,17.00
2019-03-08T01:33:11.639Z,18.73
2019-03-08T01:33:50.249Z,16.90
2019-03-08T01:34:28.940Z,16.37
2019-03-08T01:35:07.594Z,17.33
2019-03-08T01:35:46.198Z,17.77
2019-03-08T01:36:24.836Z,17.77
2019-03-08T01:37:03.443Z,16.77
2019-03-08T01:37:42.169Z,16.27
2019-03-08T01:38:21.015Z,18.00
2019-03-08T01:38:59.655Z,16.33
2019-03-08T01:39:38.275Z,17.13
2019-03-08T01:40:16.980Z,16.53
2019-03-08T01:40:55.578Z,16.77
2019-03-08T01:41:34.197Z,16.87
2019-03-08T01:42:12.883Z,19.20
2019-03-08T01:42:51.854Z,18.40
2019-03-08T01:43:30.537Z,16.17
2019-03-08T01:44:09.144Z,16.93
2019-03-08T01:44:47.814Z,21.07
2019-03-08T01:45:26.479Z,25.30
2019-03-08T01:46:05.073Z,20.20
2019-03-08T01:46:43.694Z,18.00
2019-03-08T01:47:22.297Z,23.27
2019-03-08T01:48:00.915Z,17.17
2019-03-08T01:48:39.754Z,16.43
2019-03-08T01:49:18.395Z,15.40
2019-03-08T01:49:57.010Z,18.33
2019-03-08T01:50:35.677Z,20.80
2019-03-08T01:51:14.303Z,20.53
2019-03-08T01:51:52.907Z,16.70
2019-03-08T01:52:31.589Z,17.20
2019-03-08T01:53:10.518Z,18.33
2019-03-08T01:53:49.157Z,17.50
2019-03-08T01:54:27.805Z,16.50
2019-03-08T01:55:06.480Z,18.70
2019-03-08T01:55:45.154Z,19.13
2019-03-08T01:56:23.851Z,17.17
2019-03-08T01:57:02.423Z,16.60
2019-03-08T01:57:41.070Z,17.27
2019-03-08T01:58:19.684Z,16.23
2019-03-08T01:58:58.260Z,24.50
2019-03-08T01:59:36.922Z,18.67
2019-03-08T02:00:17.666Z,17.70
2019-03-08T02:00:56.246Z,18.27
2019-03-08T02:01:35.009Z,21.23
2019-03-08T02:02:13.600Z,16.93
2019-03-08T02:02:52.294Z,17.87
2019-03-08T02:03:31.002Z,21.10
2019-03-08T02:04:09.704Z,23.13
2019-03-08T02:04:48.297Z,20.50
2019-03-08T02:05:27.024Z,17.10
2019-03-08T02:06:05.683Z,17.03
2019-03-08T02:06:44.328Z,18.77
2019-03-08T02:07:22.925Z,18.80
2019-03-08T02:08:01.835Z,18.67
2019-03-08T02:08:40.470Z,19.20
2019-03-08T02:09:19.161Z,17.20
2019-03-08T02:09:57.819Z,21.20
2019-03-08T02:10:36.488Z,21.07
2019-03-08T02:11:15.064Z,19.10
2019-03-08T02:11:53.926Z,18.43
2019-03-08T02:12:32.809Z,20.40
2019-03-08T02:13:11.547Z,19.00
2019-03-08T02:13:50.154Z,18.73
2019-03-08T02:14:28.832Z,17.60
2019-03-08T02:15:07.468Z,20.23
2019-03-08T02:15:46.072Z,19.80
2019-03-08T02:16:24.717Z,18.03
2019-03-08T02:17:03.417Z,19.47
2019-03-08T02:17:42.086Z,19.90
2019-03-08T02:18:20.938Z,19.23
2019-03-08T02:18:59.613Z,18.63
2019-03-08T02:19:38.224Z,18.43
2019-03-08T02:20:18.882Z,18.73
2019-03-08T02:21:06.223Z,22.77
2019-03-08T02:21:37.531Z,19.40
2019-03-08T02:22:16.607Z,21.27
2019-03-08T02:22:55.562Z,24.67
2019-03-08T02:23:34.374Z,18.57
2019-03-08T02:24:13.058Z,18.53
2019-03-08T02:24:51.621Z,18.43
2019-03-08T02:25:30.332Z,18.90
2019-03-08T02:26:09.031Z,18.37
2019-03-08T02:26:47.647Z,19.20
2019-03-08T02:27:26.461Z,18.53
2019-03-08T02:28:05.107Z,21.10
2019-03-08T02:28:43.697Z,20.70
2019-03-08T02:29:22.385Z,20.37
2019-03-08T02:30:01.024Z,20.73
2019-03-08T02:30:39.634Z,20.37
2019-03-08T02:31:18.325Z,23.53
2019-03-08T02:31:56.948Z,19.03
2019-03-08T02:32:35.590Z,20.43
2019-03-08T02:33:14.432Z,19.23
2019-03-08T02:33:53.114Z,19.53
2019-03-08T02:34:31.750Z,19.20
2019-03-08T02:35:10.417Z,18.53
2019-03-08T02:35:49.091Z,19.67
2019-03-08T02:36:28.146Z,19.03
2019-03-08T02:37:06.740Z,19.43
2019-03-08T02:37:45.567Z,18.87
2019-03-08T02:38:24.174Z,19.83
2019-03-08T02:39:02.833Z,23.83
2019-03-08T02:39:41.479Z,18.27
2019-03-08T02:40:36.630Z,19.43
2019-03-08T02:41:15.296Z,18.30
2019-03-08T02:41:53.862Z,19.07
2019-03-08T02:42:32.495Z,19.20
2019-03-08T02:43:13.193Z,19.77
2019-03-08T02:43:51.822Z,20.00
2019-03-08T02:44:30.468Z,18.57
2019-03-08T02:45:09.542Z,20.07
2019-03-08T02:45:48.225Z,20.40
2019-03-08T02:46:26.878Z,18.53
2019-03-08T02:47:05.516Z,18.07
2019-03-08T02:47:44.195Z,19.90
2019-03-08T02:48:22.821Z,19.03
2019-03-08T02:49:01.379Z,19.90
2019-03-08T02:49:40.058Z,20.50
2019-03-08T02:50:18.963Z,18.37
2019-03-08T02:50:57.648Z,19.43
2019-03-08T02:51:36.312Z,17.80
2019-03-08T02:52:14.938Z,18.70
2019-03-08T02:52:53.562Z,18.87
2019-03-08T02:53:32.108Z,19.17
2019-03-08T02:54:10.714Z,18.60
2019-03-08T02:54:49.613Z,18.13
2019-03-08T02:55:28.223Z,18.97
2019-03-08T02:56:06.860Z,22.73
2019-03-08T02:56:45.444Z,19.33
2019-03-08T02:57:24.089Z,18.57
2019-03-08T02:58:03.163Z,18.00
2019-03-08T02:58:42.073Z,19.30
2019-03-08T02:59:20.880Z,21.27
2019-03-08T02:59:59.529Z,17.37
2019-03-08T03:00:49.390Z,22.27
2019-03-08T03:01:28.075Z,18.93
2019-03-08T03:02:06.763Z,18.30
2019-03-08T03:02:45.434Z,17.83
2019-03-08T03:03:24.042Z,21.10
2019-03-08T03:04:02.729Z,18.60
2019-03-08T03:04:41.369Z,18.13
2019-03-08T03:05:19.955Z,17.20
2019-03-08T03:05:58.594Z,19.93
2019-03-08T03:06:37.228Z,19.07
2019-03-08T03:07:15.796Z,18.47
2019-03-08T03:07:54.400Z,18.17
2019-03-08T03:08:33.091Z,18.57
2019-03-08T03:09:11.670Z,17.80
2019-03-08T03:09:50.345Z,17.37
2019-03-08T03:10:28.979Z,18.13
2019-03-08T03:11:07.603Z,16.80
2019-03-08T03:11:46.328Z,18.07
2019-03-08T03:12:24.930Z,18.33
2019-03-08T03:13:03.819Z,19.57
2019-03-08T03:13:42.470Z,17.33
2019-03-08T03:14:21.136Z,18.93
2019-03-08T03:14:59.839Z,18.10
2019-03-08T03:15:38.446Z,18.33
2019-03-08T03:16:17.083Z,17.60
2019-03-08T03:16:55.781Z,17.10
2019-03-08T03:17:34.407Z,18.20
2019-03-08T03:18:13.027Z,17.33
2019-03-08T03:18:51.715Z,19.07
2019-03-08T03:19:30.352Z,17.30
2019-03-08T03:20:09.298Z,17.43
2019-03-08T03:20:47.953Z,16.90
2019-03-08T03:21:26.538Z,16.80
2019-03-08T03:22:05.214Z,17.30
2019-03-08T03:22:43.888Z,17.30
2019-03-08T03:23:22.786Z,18.37
2019-03-08T03:24:01.414Z,19.60
2019-03-08T03:24:40.079Z,15.93
2019-03-08T03:25:18.770Z,17.97
2019-03-08T03:25:57.414Z,17.50
2019-03-08T03:26:36.144Z,16.10
2019-03-08T03:27:14.753Z,19.33
2019-03-08T03:27:53.475Z,17.80
2019-03-08T03:28:32.082Z,17.80
2019-03-08T03:29:10.748Z,18.30
2019-03-08T03:29:49.313Z,17.73
2019-03-08T03:30:27.920Z,16.90
2019-03-08T03:31:06.559Z,18.17
2019-03-08T03:31:45.225Z,17.20
2019-03-08T03:32:23.841Z,16.63
2019-03-08T03:33:02.508Z,17.00
2019-03-08T03:33:41.296Z,15.80
2019-03-08T03:34:19.974Z,17.30
2019-03-08T03:34:58.632Z,18.07
2019-03-08T03:35:37.270Z,16.80
2019-03-08T03:36:15.894Z,20.00
2019-03-08T03:36:54.487Z,17.97
2019-03-08T03:37:33.172Z,15.73
2019-03-08T03:38:11.844Z,16.10
2019-03-08T03:38:50.498Z,15.47
2019-03-08T03:39:29.084Z,18.37
2019-03-08T03:40:08.366Z,19.03
2019-03-08T03:40:46.986Z,20.27
2019-03-08T03:41:25.699Z,15.53
2019-03-08T03:42:04.350Z,15.90
2019-03-08T03:42:43.007Z,16.10
2019-03-08T03:43:21.605Z,16.47
2019-03-08T03:44:00.509Z,17.60
2019-03-08T03:44:39.144Z,16.17
2019-03-08T03:45:17.760Z,17.10
2019-03-08T03:45:56.386Z,18.13
2019-03-08T03:46:35.058Z,15.83
2019-03-08T03:47:13.708Z,16.03
2019-03-08T03:47:52.380Z,16.30
2019-03-08T03:48:31.273Z,17.30
2019-03-08T03:49:09.888Z,16.00
2019-03-08T03:49:48.560Z,15.87
2019-03-08T03:50:27.244Z,15.80
2019-03-08T03:51:05.911Z,14.67
2019-03-08T03:51:44.514Z,16.53
2019-03-08T03:52:23.157Z,15.57
2019-03-08T03:53:01.776Z,16.90
2019-03-08T03:53:40.485Z,16.30
2019-03-08T03:54:19.047Z,14.80
2019-03-08T03:54:57.641Z,15.63
2019-03-08T03:55:36.248Z,15.00
2019-03-08T03:56:14.867Z,16.60
2019-03-08T03:56:53.616Z,16.03
2019-03-08T03:57:32.251Z,17.53
2019-03-08T03:58:10.831Z,17.00
2019-03-08T03:58:49.723Z,16.10
2019-03-08T03:59:28.361Z,16.00
2019-03-08T04:00:07.052Z,15.70
2019-03-08T04:00:45.741Z,15.47
2019-03-08T04:01:37.362Z,16.13
2019-03-08T04:02:16.117Z,15.10
2019-03-08T04:02:54.693Z,16.40
2019-03-08T04:03:33.386Z,15.50
2019-03-08T04:04:11.969Z,15.70
2019-03-08T04:04:50.644Z,18.80
2019-03-08T04:05:29.306Z,15.03
2019-03-08T04:06:07.925Z,15.90
2019-03-08T04:06:46.743Z,15.57
2019-03-08T04:07:25.411Z,16.50
2019-03-08T04:08:04.002Z,14.27
2019-03-08T04:08:42.693Z,18.40
2019-03-08T04:09:21.218Z,16.17
2019-03-08T04:09:59.817Z,15.60
2019-03-08T04:10:38.468Z,16.03
2019-03-08T04:11:17.054Z,17.67
2019-03-08T04:11:55.636Z,15.20
2019-03-08T04:12:34.521Z,15.60
2019-03-08T04:13:13.165Z,17.13
2019-03-08T04:13:51.790Z,14.87
2019-03-08T04:14:30.419Z,15.60
2019-03-08T04:15:11.517Z,14.17
2019-03-08T04:15:50.119Z,15.47
2019-03-08T04:16:28.837Z,14.30
2019-03-08T04:17:07.570Z,14.27
2019-03-08T04:17:46.276Z,15.43
2019-03-08T04:18:24.950Z,15.17
2019-03-08T04:19:03.560Z,14.93
2019-03-08T04:19:42.224Z,14.10
2019-03-08T04:20:20.819Z,14.57
2019-03-08T04:20:59.449Z,15.20
2019-03-08T04:21:42.143Z,14.67
2019-03-08T04:22:20.925Z,14.87
2019-03-08T04:22:59.562Z,14.67
2019-03-08T04:23:38.560Z,14.77
2019-03-08T04:24:17.219Z,14.57
2019-03-08T04:24:56.020Z,14.57
2019-03-08T04:25:34.610Z,14.10
2019-03-08T04:26:13.448Z,14.97
2019-03-08T04:26:52.154Z,15.43
2019-03-08T04:27:30.915Z,13.80
2019-03-08T04:28:09.572Z,15.30
2019-03-08T04:28:48.248Z,15.83
2019-03-08T04:29:26.790Z,16.70
2019-03-08T04:30:05.429Z,16.20
2019-03-08T04:30:47.966Z,14.33
2019-03-08T04:31:26.617Z,15.67
2019-03-08T04:32:05.917Z,15.20
2019-03-08T04:32:45.364Z,16.47
2019-03-08T04:33:24.169Z,15.60
2019-03-08T04:34:04.095Z,15.27
2019-03-08T04:34:42.943Z,17.57
2019-03-08T04:35:21.737Z,15.00
2019-03-08T04:36:00.996Z,16.37
2019-03-08T04:36:39.719Z,17.53
2019-03-08T04:37:18.894Z,17.80
2019-03-08T04:37:57.868Z,15.70
2019-03-08T04:38:36.567Z,17.10
2019-03-08T04:39:15.217Z,15.57
2019-03-08T04:39:53.803Z,19.43
2019-03-08T04:40:32.419Z,17.70
2019-03-08T04:41:11.063Z,21.10
2019-03-08T04:41:49.703Z,18.37
2019-03-08T04:42:28.411Z,20.50
2019-03-08T04:43:07.084Z,16.97
2019-03-08T04:43:45.686Z,19.87
2019-03-08T04:44:24.315Z,18.10
2019-03-08T04:45:02.987Z,16.90
2019-03-08T04:45:41.850Z,20.87
2019-03-08T04:46:20.541Z,18.67
2019-03-08T04:46:59.234Z,17.70
2019-03-08T04:47:37.974Z,17.63
2019-03-08T04:48:16.583Z,17.93
2019-03-08T04:48:55.205Z,19.00
2019-03-08T04:49:33.805Z,17.50
2019-03-08T04:50:13.192Z,16.87
2019-03-08T04:50:51.837Z,17.70
2019-03-08T04:51:30.525Z,21.10
2019-03-08T04:52:09.184Z,17.83
2019-03-08T04:52:47.755Z,19.57
2019-03-08T04:53:26.474Z,17.77
2019-03-08T04:54:05.366Z,17.33
2019-03-08T04:54:43.951Z,18.17
2019-03-08T04:55:22.602Z,17.50
2019-03-08T04:56:01.383Z,18.23
2019-03-08T04:56:40.032Z,16.43
2019-03-08T04:57:18.693Z,18.07
2019-03-08T04:57:57.300Z,17.30
2019-03-08T04:58:35.972Z,17.67
2019-03-08T04:59:14.573Z,17.17
2019-03-08T04:59:53.215Z,17.20
2019-03-08T05:00:32.064Z,18.83
2019-03-08T05:01:10.607Z,19.30
2019-03-08T05:01:49.281Z,20.70
2019-03-08T05:02:27.943Z,19.20
2019-03-08T05:03:06.523Z,16.93
2019-03-08T05:03:45.204Z,17.40
2019-03-08T05:04:23.770Z,16.60
2019-03-08T05:05:02.359Z,16.47
2019-03-08T05:05:41.036Z,16.50
2019-03-08T05:06:19.701Z,17.43
2019-03-08T05:06:58.341Z,16.73
2019-03-08T05:07:36.970Z,16.47
2019-03-08T05:08:15.621Z,18.30
2019-03-08T05:08:54.348Z,17.30
2019-03-08T05:09:33.011Z,17.87
2019-03-08T05:10:13.018Z,16.50
2019-03-08T05:10:51.963Z,16.13
2019-03-08T05:11:30.550Z,17.50
2019-03-08T05:12:09.215Z,16.33
2019-03-08T05:12:47.826Z,17.07
2019-03-08T05:13:26.430Z,17.73
2019-03-08T05:14:05.048Z,17.43
2019-03-08T05:14:43.695Z,18.30
2019-03-08T05:15:22.620Z,18.40
2019-03-08T05:16:01.260Z,17.03
2019-03-08T05:16:39.849Z,15.43
2019-03-08T05:17:18.532Z,16.43
2019-03-08T05:17:58.430Z,16.37
2019-03-08T05:18:37.264Z,17.33
2019-03-08T05:19:15.919Z,15.90
2019-03-08T05:19:54.580Z,17.67
2019-03-08T05:20:33.183Z,15.07
2019-03-08T05:21:11.830Z,16.53
2019-03-08T05:21:50.438Z,16.43
2019-03-08T05:22:29.082Z,16.23
2019-03-08T05:23:07.769Z,17.27
2019-03-08T05:23:46.356Z,16.93
2019-03-08T05:24:24.938Z,17.13
2019-03-08T05:25:03.600Z,16.27
2019-03-08T05:25:42.544Z,17.23
2019-03-08T05:26:21.225Z,15.90
2019-03-08T05:26:59.876Z,17.03
2019-03-08T05:27:38.532Z,17.13
2019-03-08T05:28:17.407Z,18.47
2019-03-08T05:28:56.056Z,16.27
2019-03-08T05:29:34.646Z,18.80
2019-03-08T05:30:13.885Z,17.20
2019-03-08T05:30:52.567Z,15.70
2019-03-08T05:31:31.172Z,15.17
2019-03-08T05:32:09.822Z,17.57
2019-03-08T05:32:48.524Z,16.50
2019-03-08T05:33:27.105Z,15.60
2019-03-08T05:34:05.803Z,17.77
2019-03-08T05:34:44.564Z,17.10
2019-03-08T05:35:23.223Z,17.37
2019-03-08T05:36:02.090Z,17.97
2019-03-08T05:36:40.670Z,17.70
2019-03-08T05:37:19.365Z,16.67
2019-03-08T05:37:58.121Z,16.80
2019-03-08T05:38:36.758Z,16.17
2019-03-08T05:39:18.577Z,15.97
2019-03-08T05:39:57.217Z,16.60
2019-03-08T05:40:36.144Z,18.00
2019-03-08T05:41:14.744Z,18.17
2019-03-08T05:41:53.625Z,18.93
2019-03-08T05:42:32.320Z,16.17
2019-03-08T05:43:10.892Z,15.90
2019-03-08T05:43:49.579Z,15.00
2019-03-08T05:44:28.175Z,16.70
2019-03-08T05:45:07.163Z,16.50
2019-03-08T05:45:45.781Z,15.80
2019-03-08T05:46:24.449Z,15.97
2019-03-08T05:47:03.088Z,15.40
2019-03-08T05:47:41.704Z,17.00
2019-03-08T05:48:20.315Z,16.93
2019-03-08T05:48:59.005Z,15.30
2019-03-08T05:49:37.608Z,15.67
2019-03-08T05:50:16.222Z,15.27
2019-03-08T05:50:55.198Z,16.43
2019-03-08T05:51:33.808Z,16.90
2019-03-08T05:52:12.418Z,16.50
2019-03-08T05:52:51.056Z,15.63
2019-03-08T05:53:29.663Z,15.63
2019-03-08T05:54:08.277Z,15.50
2019-03-08T05:54:46.911Z,16.37
2019-03-08T05:55:25.865Z,14.50
2019-03-08T05:56:04.559Z,15.80
2019-03-08T05:56:43.182Z,16.37
2019-03-08T05:57:21.868Z,15.63
2019-03-08T05:58:00.484Z,15.27
2019-03-08T05:58:39.161Z,16.30
2019-03-08T05:59:17.842Z,14.83
2019-03-08T05:59:56.534Z,15.70
2019-03-08T06:00:35.740Z,15.67
2019-03-08T06:01:14.693Z,16.60
2019-03-08T06:01:53.291Z,14.70
2019-03-08T06:02:31.967Z,16.27
2019-03-08T06:03:10.532Z,14.53
2019-03-08T06:03:49.179Z,15.30
2019-03-08T06:04:27.871Z,15.27
2019-03-08T06:05:06.459Z,16.27
2019-03-08T06:05:45.316Z,14.83
2019-03-08T06:06:26.037Z,14.63
2019-03-08T06:07:04.014Z,14.67
2019-03-08T06:07:42.668Z,15.80
2019-03-08T06:08:21.263Z,14.33
2019-03-08T06:08:59.886Z,15.50
2019-03-08T06:09:38.520Z,14.40
2019-03-08T06:10:38.531Z,15.57
2019-03-08T06:11:17.183Z,15.57
2019-03-08T06:11:55.843Z,15.90
2019-03-08T06:12:34.508Z,15.73
2019-03-08T06:13:13.134Z,15.30
2019-03-08T06:13:52.045Z,15.37
2019-03-08T06:14:30.658Z,14.57
2019-03-08T06:15:09.420Z,17.40
2019-03-08T06:15:48.080Z,14.30
2019-03-08T06:16:26.718Z,14.60
2019-03-08T06:17:05.323Z,14.70
2019-03-08T06:17:44.029Z,14.80
2019-03-08T06:18:22.969Z,15.63
2019-03-08T06:19:01.632Z,13.97
2019-03-08T06:19:40.300Z,13.87
2019-03-08T06:20:18.881Z,14.83
2019-03-08T06:20:57.480Z,14.40
2019-03-08T06:21:36.180Z,15.20
2019-03-08T06:22:14.883Z,14.68
2019-03-08T06:22:53.448Z,14.90
2019-03-08T06:23:32.119Z,14.23
2019-03-08T06:24:10.879Z,14.10
2019-03-08T06:24:49.541Z,13.50
2019-03-08T06:25:28.140Z,14.50
2019-03-08T06:26:06.783Z,14.00
2019-03-08T06:26:45.448Z,13.40
2019-03-08T06:27:24.145Z,14.50
2019-03-08T06:28:02.821Z,13.23
2019-03-08T06:28:41.501Z,14.27
2019-03-08T06:29:20.125Z,14.43
2019-03-08T06:29:58.806Z,13.17
2019-03-08T06:30:37.440Z,13.03
2019-03-08T06:31:16.029Z,13.73
2019-03-08T06:31:54.610Z,14.20
2019-03-08T06:32:33.216Z,15.40
2019-03-08T06:33:11.821Z,14.10
2019-03-08T06:33:50.496Z,14.00
2019-03-08T06:34:29.491Z,14.90
2019-03-08T06:35:08.092Z,14.60
2019-03-08T06:35:46.830Z,13.10
2019-03-08T06:36:25.485Z,13.63
2019-03-08T06:37:04.185Z,15.10
2019-03-08T06:37:42.873Z,14.07
2019-03-08T06:38:21.497Z,13.37
2019-03-08T06:39:00.172Z,13.90
2019-03-08T06:39:38.764Z,13.90
2019-03-08T06:40:17.435Z,14.20
2019-03-08T06:40:56.216Z,14.77
2019-03-08T06:41:34.856Z,13.43
2019-03-08T06:42:13.512Z,14.50
2019-03-08T06:42:52.125Z,15.10
2019-03-08T06:43:30.727Z,12.97
2019-03-08T06:44:09.395Z,13.23
2019-03-08T06:44:48.166Z,12.80
2019-03-08T06:45:26.864Z,13.33
2019-03-08T06:46:05.437Z,14.33
2019-03-08T06:46:44.079Z,13.87
2019-03-08T06:47:22.807Z,13.70
2019-03-08T06:48:01.400Z,12.13
2019-03-08T06:48:40.031Z,14.43
2019-03-08T06:49:18.684Z,13.60
2019-03-08T06:49:57.269Z,12.00
2019-03-08T06:50:35.941Z,12.43
2019-03-08T06:51:14.577Z,14.80
2019-03-08T06:51:53.228Z,13.97
2019-03-08T06:52:31.843Z,13.40
2019-03-08T06:53:10.497Z,13.27
2019-03-08T06:53:49.071Z,13.43
2019-03-08T06:54:27.648Z,13.20
2019-03-08T06:55:06.506Z,13.63
2019-03-08T06:55:45.195Z,13.43
2019-03-08T06:56:23.868Z,15.30
2019-03-08T06:57:02.438Z,14.17
2019-03-08T06:57:41.052Z,13.53
2019-03-08T06:58:28.971Z,13.53
2019-03-08T06:59:25.623Z,14.27
2019-03-08T07:00:11.293Z,13.27
2019-03-08T07:01:23.341Z,13.20
2019-03-08T07:02:02.304Z,13.40
2019-03-08T07:02:40.964Z,13.23
2019-03-08T07:03:19.639Z,12.77
2019-03-08T07:03:58.508Z,13.13
2019-03-08T07:04:37.161Z,13.03
2019-03-08T07:05:15.854Z,12.83
2019-03-08T07:05:54.539Z,12.60
2019-03-08T07:06:33.560Z,14.63
2019-03-08T07:07:12.109Z,14.23
2019-03-08T07:07:50.700Z,12.63
2019-03-08T07:08:29.301Z,13.13
2019-03-08T07:09:08.582Z,13.00
2019-03-08T07:09:47.247Z,12.37
2019-03-08T07:10:25.884Z,15.10
2019-03-08T07:11:04.668Z,12.50
2019-03-08T07:11:43.398Z,12.17
2019-03-08T07:12:21.991Z,12.67
2019-03-08T07:13:03.509Z,12.67
2019-03-08T07:13:40.645Z,13.27
2019-03-08T07:14:19.329Z,14.63
2019-03-08T07:14:57.991Z,13.83
2019-03-08T07:15:36.643Z,12.70
2019-03-08T07:16:15.344Z,13.57
2019-03-08T07:16:54.286Z,14.90
2019-03-08T07:17:32.894Z,12.53
2019-03-08T07:18:12.904Z,14.23
2019-03-08T07:18:51.869Z,14.30
2019-03-08T07:19:30.560Z,13.67
2019-03-08T07:20:19.620Z,14.47
2019-03-08T07:21:05.391Z,12.53
2019-03-08T07:21:52.996Z,13.60
2019-03-08T07:22:47.811Z,12.23
2019-03-08T07:23:47.524Z,13.47
2019-03-08T07:24:42.656Z,12.67
2019-03-08T07:25:37.646Z,13.67
2019-03-08T07:26:39.965Z,12.77
2019-03-08T07:27:48.414Z,13.60
2019-03-08T07:28:57.453Z,13.50
2019-03-08T07:29:52.683Z,12.77
2019-03-08T07:30:46.653Z,12.37
2019-03-08T07:31:52.582Z,13.33
2019-03-08T07:32:55.738Z,11.90
2019-03-08T07:33:58.420Z,13.63
2019-03-08T07:34:43.453Z,12.07
2019-03-08T07:35:35.650Z,11.80
2019-03-08T07:36:24.836Z,11.85
2019-03-08T07:37:20.099Z,13.03
2019-03-08T07:38:25.481Z,13.20
2019-03-08T07:39:25.009Z,12.17
2019-03-08T07:40:23.136Z,12.90
2019-03-08T07:41:16.151Z,13.07
2019-03-08T07:42:20.855Z,12.57
2019-03-08T07:43:05.658Z,18.00
2019-03-08T07:44:11.311Z,13.50
2019-03-08T07:45:10.750Z,13.43
2019-03-08T07:46:12.957Z,12.80
2019-03-08T07:47:21.384Z,12.77
2019-03-08T07:48:26.997Z,12.50
2019-03-08T07:49:23.708Z,13.43
2019-03-08T07:50:23.610Z,12.30
2019-03-08T07:51:29.038Z,12.57
2019-03-08T07:52:19.992Z,12.77
2019-03-08T07:53:13.109Z,12.53
2019-03-08T07:54:00.771Z,12.53
2019-03-08T07:55:03.475Z,14.67
2019-03-08T07:56:00.136Z,14.23
2019-03-08T07:56:44.979Z,14.03
2019-03-08T07:57:44.710Z,14.33
2019-03-08T07:58:59.258Z,14.30
2019-03-08T07:59:53.343Z,15.97
2019-03-08T08:00:47.035Z,15.37
2019-03-08T08:01:46.917Z,14.27
2019-03-08T08:02:49.436Z,15.60
2019-03-08T08:03:39.700Z,14.73
2019-03-08T08:04:36.334Z,15.60
2019-03-08T08:05:33.415Z,14.00
2019-03-08T08:06:22.934Z,15.97
2019-03-08T08:07:16.688Z,15.53
2019-03-08T08:08:19.182Z,15.60
2019-03-08T08:09:15.854Z,14.43
2019-03-08T08:10:03.571Z,14.33
2019-03-08T08:10:55.272Z,14.17
2019-03-08T08:11:51.884Z,14.97
2019-03-08T08:12:57.732Z,13.63
2019-03-08T08:13:49.991Z,14.20
2019-03-08T08:14:46.339Z,13.77
2019-03-08T08:15:46.718Z,13.47
2019-03-08T08:16:40.569Z,14.70
2019-03-08T08:17:26.652Z,13.63
2019-03-08T08:18:29.103Z,14.93
2019-03-08T08:19:20.246Z,14.63
2019-03-08T08:20:16.804Z,14.80
2019-03-08T08:21:18.196Z,14.47
2019-03-08T08:22:23.135Z,14.53
2019-03-08T08:23:34.005Z,14.00
2019-03-08T08:24:12.265Z,16.37
2019-03-08T08:25:00.938Z,13.43
2019-03-08T08:25:55.852Z,13.57
2019-03-08T08:27:07.564Z,14.17
2019-03-08T08:28:06.966Z,14.40
2019-03-08T08:29:01.511Z,13.47
2019-03-08T08:30:00.927Z,13.63
2019-03-08T08:30:54.239Z,13.70
2019-03-08T08:31:40.940Z,12.90
2019-03-08T08:32:37.625Z,14.23
2019-03-08T08:33:43.500Z,13.80
2019-03-08T08:34:44.077Z,13.23
2019-03-08T08:35:40.683Z,13.20
2019-03-08T08:36:52.250Z,14.03
2019-03-08T08:37:54.986Z,13.40
2019-03-08T08:38:45.599Z,13.80
2019-03-08T08:39:48.243Z,14.33
2019-03-08T08:40:43.467Z,13.00
2019-03-08T08:41:43.439Z,14.60
2019-03-08T08:42:29.669Z,14.53
2019-03-08T08:43:26.286Z,13.37
2019-03-08T08:44:28.926Z,12.43
2019-03-08T08:45:24.310Z,13.70
2019-03-08T08:46:18.411Z,14.60
2019-03-08T08:47:13.554Z,13.77
2019-03-08T08:48:10.316Z,12.23
2019-03-08T08:49:12.943Z,13.73
2019-03-08T08:50:13.092Z,13.87